sensor_id;sensor_type;location;lat;lon;timestamp;P1;durP1;ratioP1;P2;durP2;ratioP2
11817;SDS011;5966;52.402;5.322;2023-04-03T00:01:34;2.07;;;0.90;;
11817;SDS011;5966;52.402;5.322;2023-04-03T00:04:04;2.87;;;1.17;;
11817;SDS011;5966;52.402;5.322;2023-04-03T00:06:36;0.90;;;0.90;;
11817;SDS011;5966;52.402;5.322;2023-04-03T00:09:04;1.97;;;1.30;;
11817;SDS011;5966;52.402;5.322;2023-04-03T00:11:35;2.50;;;1.20;;
11817;SDS011;5966;52.402;5.322;2023-04-03T00:14:03;1.90;;;1.30;;
11817;SDS011;5966;52.402;5.322;2023-04-03T00:16:31;1.07;;;0.97;;
11817;SDS011;5966;52.402;5.322;2023-04-03T00:19:00;1.30;;;1.20;;
11817;SDS011;5966;52.402;5.322;2023-04-03T00:21:28;1.67;;;1.17;;
11817;SDS011;5966;52.402;5.322;2023-04-03T00:24:00;1.53;;;1.00;;
11817;SDS011;5966;52.402;5.322;2023-04-03T00:26:37;1.37;;;1.07;;
11817;SDS011;5966;52.402;5.322;2023-04-03T00:29:05;1.10;;;1.00;;
11817;SDS011;5966;52.402;5.322;2023-04-03T00:31:33;2.67;;;1.20;;
11817;SDS011;5966;52.402;5.322;2023-04-03T00:34:01;3.30;;;1.40;;
11817;SDS011;5966;52.402;5.322;2023-04-03T00:36:29;1.23;;;1.13;;
11817;SDS011;5966;52.402;5.322;2023-04-03T00:38:57;2.00;;;1.10;;
11817;SDS011;5966;52.402;5.322;2023-04-03T00:41:26;2.20;;;1.20;;
11817;SDS011;5966;52.402;5.322;2023-04-03T00:43:54;2.60;;;1.30;;
11817;SDS011;5966;52.402;5.322;2023-04-03T00:46:23;2.93;;;1.50;;
11817;SDS011;5966;52.402;5.322;2023-04-03T00:48:51;2.63;;;1.30;;
11817;SDS011;5966;52.402;5.322;2023-04-03T00:52:03;2.70;;;1.43;;
11817;SDS011;5966;52.402;5.322;2023-04-03T00:55:19;2.80;;;1.20;;
11817;SDS011;5966;52.402;5.322;2023-04-03T00:57:49;2.10;;;1.27;;
11817;SDS011;5966;52.402;5.322;2023-04-03T01:00:18;3.07;;;1.53;;
11817;SDS011;5966;52.402;5.322;2023-04-03T01:02:49;1.37;;;1.20;;
11817;SDS011;5966;52.402;5.322;2023-04-03T01:05:18;2.43;;;1.40;;
11817;SDS011;5966;52.402;5.322;2023-04-03T01:07:50;2.37;;;1.33;;
11817;SDS011;5966;52.402;5.322;2023-04-03T01:10:25;4.60;;;1.43;;
11817;SDS011;5966;52.402;5.322;2023-04-03T01:12:55;2.47;;;1.27;;
11817;SDS011;5966;52.402;5.322;2023-04-03T01:15:40;3.73;;;1.73;;
11817;SDS011;5966;52.402;5.322;2023-04-03T01:18:09;2.53;;;1.63;;
11817;SDS011;5966;52.402;5.322;2023-04-03T01:20:55;2.60;;;1.50;;
11817;SDS011;5966;52.402;5.322;2023-04-03T01:24:01;4.27;;;1.23;;
11817;SDS011;5966;52.402;5.322;2023-04-03T01:26:37;2.20;;;1.27;;
11817;SDS011;5966;52.402;5.322;2023-04-03T01:29:07;2.83;;;1.17;;
11817;SDS011;5966;52.402;5.322;2023-04-03T01:31:44;4.63;;;1.67;;
11817;SDS011;5966;52.402;5.322;2023-04-03T01:34:20;1.30;;;1.20;;
11817;SDS011;5966;52.402;5.322;2023-04-03T01:36:48;3.10;;;1.53;;
11817;SDS011;5966;52.402;5.322;2023-04-03T01:39:19;3.87;;;1.23;;
11817;SDS011;5966;52.402;5.322;2023-04-03T01:42:09;1.57;;;1.20;;
11817;SDS011;5966;52.402;5.322;2023-04-03T01:44:43;1.13;;;1.03;;
11817;SDS011;5966;52.402;5.322;2023-04-03T01:47:36;1.43;;;1.23;;
11817;SDS011;5966;52.402;5.322;2023-04-03T01:51:07;2.77;;;1.60;;
11817;SDS011;5966;52.402;5.322;2023-04-03T01:53:56;3.17;;;1.63;;
11817;SDS011;5966;52.402;5.322;2023-04-03T01:56:38;3.17;;;1.40;;
11817;SDS011;5966;52.402;5.322;2023-04-03T01:59:06;5.57;;;1.57;;
11817;SDS011;5966;52.402;5.322;2023-04-03T02:01:57;2.13;;;1.33;;
11817;SDS011;5966;52.402;5.322;2023-04-03T02:05:01;4.90;;;1.40;;
11817;SDS011;5966;52.402;5.322;2023-04-03T02:07:48;1.97;;;1.30;;
11817;SDS011;5966;52.402;5.322;2023-04-03T02:10:17;3.07;;;1.50;;
11817;SDS011;5966;52.402;5.322;2023-04-03T02:13:03;2.80;;;1.33;;
11817;SDS011;5966;52.402;5.322;2023-04-03T02:15:47;3.40;;;1.77;;
11817;SDS011;5966;52.402;5.322;2023-04-03T02:18:16;1.77;;;1.17;;
11817;SDS011;5966;52.402;5.322;2023-04-03T02:20:45;2.20;;;1.50;;
11817;SDS011;5966;52.402;5.322;2023-04-03T02:23:14;2.27;;;1.27;;
11817;SDS011;5966;52.402;5.322;2023-04-03T02:25:46;2.33;;;1.33;;
11817;SDS011;5966;52.402;5.322;2023-04-03T02:28:15;3.67;;;1.40;;
11817;SDS011;5966;52.402;5.322;2023-04-03T02:30:51;5.93;;;1.17;;
11817;SDS011;5966;52.402;5.322;2023-04-03T02:33:19;3.30;;;1.53;;
11817;SDS011;5966;52.402;5.322;2023-04-03T02:35:53;3.43;;;1.70;;
11817;SDS011;5966;52.402;5.322;2023-04-03T02:38:21;2.17;;;1.50;;
11817;SDS011;5966;52.402;5.322;2023-04-03T02:40:50;1.77;;;1.33;;
11817;SDS011;5966;52.402;5.322;2023-04-03T02:43:18;1.90;;;1.40;;
11817;SDS011;5966;52.402;5.322;2023-04-03T02:45:46;2.13;;;1.40;;
11817;SDS011;5966;52.402;5.322;2023-04-03T02:48:14;3.53;;;1.70;;
11817;SDS011;5966;52.402;5.322;2023-04-03T02:50:44;2.33;;;1.47;;
11817;SDS011;5966;52.402;5.322;2023-04-03T02:55:59;3.00;;;1.40;;
11817;SDS011;5966;52.402;5.322;2023-04-03T02:58:44;3.70;;;1.90;;
11817;SDS011;5966;52.402;5.322;2023-04-03T03:01:13;4.00;;;1.60;;
11817;SDS011;5966;52.402;5.322;2023-04-03T03:03:41;4.23;;;1.90;;
11817;SDS011;5966;52.402;5.322;2023-04-03T03:06:10;4.43;;;1.47;;
11817;SDS011;5966;52.402;5.322;2023-04-03T03:08:41;2.37;;;1.63;;
11817;SDS011;5966;52.402;5.322;2023-04-03T03:11:10;2.60;;;1.40;;
11817;SDS011;5966;52.402;5.322;2023-04-03T03:13:48;4.70;;;1.50;;
11817;SDS011;5966;52.402;5.322;2023-04-03T03:16:17;3.37;;;1.50;;
11817;SDS011;5966;52.402;5.322;2023-04-03T03:18:48;4.60;;;1.40;;
11817;SDS011;5966;52.402;5.322;2023-04-03T03:21:16;2.77;;;1.50;;
11817;SDS011;5966;52.402;5.322;2023-04-03T03:23:45;2.10;;;1.30;;
11817;SDS011;5966;52.402;5.322;2023-04-03T03:26:14;1.90;;;1.53;;
11817;SDS011;5966;52.402;5.322;2023-04-03T03:28:42;2.07;;;1.60;;
11817;SDS011;5966;52.402;5.322;2023-04-03T03:31:16;1.37;;;1.20;;
11817;SDS011;5966;52.402;5.322;2023-04-03T03:34:02;2.93;;;1.53;;
11817;SDS011;5966;52.402;5.322;2023-04-03T03:36:30;2.33;;;1.33;;
11817;SDS011;5966;52.402;5.322;2023-04-03T03:38:59;2.60;;;1.40;;
11817;SDS011;5966;52.402;5.322;2023-04-03T03:41:27;3.57;;;1.43;;
11817;SDS011;5966;52.402;5.322;2023-04-03T03:43:55;2.07;;;1.23;;
11817;SDS011;5966;52.402;5.322;2023-04-03T03:46:27;2.30;;;1.57;;
11817;SDS011;5966;52.402;5.322;2023-04-03T03:48:55;3.00;;;1.40;;
11817;SDS011;5966;52.402;5.322;2023-04-03T03:51:23;3.10;;;1.73;;
11817;SDS011;5966;52.402;5.322;2023-04-03T03:53:51;2.60;;;1.77;;
11817;SDS011;5966;52.402;5.322;2023-04-03T03:56:20;2.77;;;1.60;;
11817;SDS011;5966;52.402;5.322;2023-04-03T03:58:48;3.33;;;1.30;;
11817;SDS011;5966;52.402;5.322;2023-04-03T04:01:16;3.70;;;1.67;;
11817;SDS011;5966;52.402;5.322;2023-04-03T04:03:47;2.70;;;1.27;;
11817;SDS011;5966;52.402;5.322;2023-04-03T04:06:16;2.43;;;1.40;;
11817;SDS011;5966;52.402;5.322;2023-04-03T04:08:44;2.43;;;1.70;;
11817;SDS011;5966;52.402;5.322;2023-04-03T04:11:12;3.27;;;1.77;;
11817;SDS011;5966;52.402;5.322;2023-04-03T04:13:42;3.23;;;1.97;;
11817;SDS011;5966;52.402;5.322;2023-04-03T04:16:11;3.90;;;1.77;;
11817;SDS011;5966;52.402;5.322;2023-04-03T04:18:38;3.00;;;1.83;;
11817;SDS011;5966;52.402;5.322;2023-04-03T04:21:10;3.83;;;1.90;;
11817;SDS011;5966;52.402;5.322;2023-04-03T04:24:01;2.93;;;1.60;;
11817;SDS011;5966;52.402;5.322;2023-04-03T04:26:31;2.47;;;1.30;;
11817;SDS011;5966;52.402;5.322;2023-04-03T04:29:03;2.23;;;1.40;;
11817;SDS011;5966;52.402;5.322;2023-04-03T04:31:36;4.77;;;1.90;;
11817;SDS011;5966;52.402;5.322;2023-04-03T04:34:03;3.20;;;1.60;;
11817;SDS011;5966;52.402;5.322;2023-04-03T04:36:33;4.47;;;1.80;;
11817;SDS011;5966;52.402;5.322;2023-04-03T04:39:13;2.40;;;1.70;;
11817;SDS011;5966;52.402;5.322;2023-04-03T04:41:45;3.53;;;1.73;;
11817;SDS011;5966;52.402;5.322;2023-04-03T04:47:07;2.33;;;1.43;;
11817;SDS011;5966;52.402;5.322;2023-04-03T04:49:35;1.60;;;1.50;;
11817;SDS011;5966;52.402;5.322;2023-04-03T04:52:03;4.20;;;2.00;;
11817;SDS011;5966;52.402;5.322;2023-04-03T04:54:32;5.47;;;1.80;;
11817;SDS011;5966;52.402;5.322;2023-04-03T04:57:01;2.80;;;1.67;;
11817;SDS011;5966;52.402;5.322;2023-04-03T04:59:29;3.10;;;1.70;;
11817;SDS011;5966;52.402;5.322;2023-04-03T05:02:02;3.83;;;1.77;;
11817;SDS011;5966;52.402;5.322;2023-04-03T05:04:30;5.97;;;1.80;;
11817;SDS011;5966;52.402;5.322;2023-04-03T05:06:59;2.37;;;1.70;;
11817;SDS011;5966;52.402;5.322;2023-04-03T05:09:50;3.83;;;1.97;;
11817;SDS011;5966;52.402;5.322;2023-04-03T05:12:20;4.90;;;2.10;;
11817;SDS011;5966;52.402;5.322;2023-04-03T05:15:02;5.37;;;2.10;;
11817;SDS011;5966;52.402;5.322;2023-04-03T05:17:32;4.17;;;2.00;;
11817;SDS011;5966;52.402;5.322;2023-04-03T05:20:01;6.00;;;1.70;;
11817;SDS011;5966;52.402;5.322;2023-04-03T05:22:42;4.50;;;1.60;;
11817;SDS011;5966;52.402;5.322;2023-04-03T05:25:11;3.10;;;1.50;;
11817;SDS011;5966;52.402;5.322;2023-04-03T05:31:09;5.03;;;1.63;;
11817;SDS011;5966;52.402;5.322;2023-04-03T05:33:38;7.43;;;1.90;;
11817;SDS011;5966;52.402;5.322;2023-04-03T05:36:06;5.87;;;1.67;;
11817;SDS011;5966;52.402;5.322;2023-04-03T05:38:49;6.00;;;2.00;;
11817;SDS011;5966;52.402;5.322;2023-04-03T05:41:35;2.67;;;1.63;;
11817;SDS011;5966;52.402;5.322;2023-04-03T05:44:07;3.57;;;1.80;;
11817;SDS011;5966;52.402;5.322;2023-04-03T05:46:35;1.93;;;1.73;;
11817;SDS011;5966;52.402;5.322;2023-04-03T05:49:06;4.50;;;1.97;;
11817;SDS011;5966;52.402;5.322;2023-04-03T05:51:34;4.80;;;2.30;;
11817;SDS011;5966;52.402;5.322;2023-04-03T05:54:06;4.43;;;2.17;;
11817;SDS011;5966;52.402;5.322;2023-04-03T05:56:44;4.00;;;1.60;;
11817;SDS011;5966;52.402;5.322;2023-04-03T05:59:12;2.27;;;1.63;;
11817;SDS011;5966;52.402;5.322;2023-04-03T06:01:40;4.03;;;1.70;;
11817;SDS011;5966;52.402;5.322;2023-04-03T06:04:12;4.50;;;1.60;;
11817;SDS011;5966;52.402;5.322;2023-04-03T06:06:43;3.03;;;2.03;;
11817;SDS011;5966;52.402;5.322;2023-04-03T06:09:15;6.17;;;2.20;;
11817;SDS011;5966;52.402;5.322;2023-04-03T06:11:43;3.73;;;1.57;;
11817;SDS011;5966;52.402;5.322;2023-04-03T06:14:12;2.50;;;2.20;;
11817;SDS011;5966;52.402;5.322;2023-04-03T06:16:40;4.27;;;1.90;;
11817;SDS011;5966;52.402;5.322;2023-04-03T06:19:08;6.60;;;1.70;;
11817;SDS011;5966;52.402;5.322;2023-04-03T06:21:38;2.07;;;1.80;;
11817;SDS011;5966;52.402;5.322;2023-04-03T06:24:07;2.50;;;1.73;;
11817;SDS011;5966;52.402;5.322;2023-04-03T06:26:36;4.10;;;2.00;;
11817;SDS011;5966;52.402;5.322;2023-04-03T06:29:06;2.67;;;1.70;;
11817;SDS011;5966;52.402;5.322;2023-04-03T06:31:35;2.60;;;1.50;;
11817;SDS011;5966;52.402;5.322;2023-04-03T06:34:06;2.77;;;1.87;;
11817;SDS011;5966;52.402;5.322;2023-04-03T06:36:35;5.17;;;2.03;;
11817;SDS011;5966;52.402;5.322;2023-04-03T06:39:05;2.63;;;1.80;;
11817;SDS011;5966;52.402;5.322;2023-04-03T06:41:34;3.07;;;2.00;;
11817;SDS011;5966;52.402;5.322;2023-04-03T06:44:04;1.97;;;1.47;;
11817;SDS011;5966;52.402;5.322;2023-04-03T06:46:38;4.80;;;1.87;;
11817;SDS011;5966;52.402;5.322;2023-04-03T06:49:08;3.23;;;1.80;;
11817;SDS011;5966;52.402;5.322;2023-04-03T06:51:38;3.47;;;1.87;;
11817;SDS011;5966;52.402;5.322;2023-04-03T06:54:10;2.83;;;1.70;;
11817;SDS011;5966;52.402;5.322;2023-04-03T06:56:42;3.87;;;1.90;;
11817;SDS011;5966;52.402;5.322;2023-04-03T06:59:14;2.30;;;1.57;;
11817;SDS011;5966;52.402;5.322;2023-04-03T07:01:42;2.50;;;1.70;;
11817;SDS011;5966;52.402;5.322;2023-04-03T07:04:10;7.97;;;2.00;;
11817;SDS011;5966;52.402;5.322;2023-04-03T07:06:38;4.03;;;1.80;;
11817;SDS011;5966;52.402;5.322;2023-04-03T07:09:12;2.60;;;1.37;;
11817;SDS011;5966;52.402;5.322;2023-04-03T07:11:42;5.50;;;1.80;;
11817;SDS011;5966;52.402;5.322;2023-04-03T07:14:11;2.60;;;1.53;;
11817;SDS011;5966;52.402;5.322;2023-04-03T07:16:40;4.17;;;2.00;;
11817;SDS011;5966;52.402;5.322;2023-04-03T07:19:08;5.70;;;1.90;;
11817;SDS011;5966;52.402;5.322;2023-04-03T07:21:38;4.00;;;2.00;;
11817;SDS011;5966;52.402;5.322;2023-04-03T07:24:08;4.17;;;2.07;;
11817;SDS011;5966;52.402;5.322;2023-04-03T07:26:42;4.57;;;1.63;;
11817;SDS011;5966;52.402;5.322;2023-04-03T07:29:11;3.43;;;1.57;;
11817;SDS011;5966;52.402;5.322;2023-04-03T07:31:41;5.00;;;1.97;;
11817;SDS011;5966;52.402;5.322;2023-04-03T07:34:12;4.57;;;1.80;;
11817;SDS011;5966;52.402;5.322;2023-04-03T07:36:42;4.30;;;1.77;;
11817;SDS011;5966;52.402;5.322;2023-04-03T07:39:18;6.37;;;2.07;;
11817;SDS011;5966;52.402;5.322;2023-04-03T07:41:46;2.87;;;1.83;;
11817;SDS011;5966;52.402;5.322;2023-04-03T07:44:14;4.47;;;1.80;;
11817;SDS011;5966;52.402;5.322;2023-04-03T07:46:46;4.33;;;1.90;;
11817;SDS011;5966;52.402;5.322;2023-04-03T07:49:18;4.23;;;1.70;;
11817;SDS011;5966;52.402;5.322;2023-04-03T07:51:53;2.77;;;1.80;;
11817;SDS011;5966;52.402;5.322;2023-04-03T07:54:26;4.63;;;1.77;;
11817;SDS011;5966;52.402;5.322;2023-04-03T07:56:55;4.77;;;1.77;;
11817;SDS011;5966;52.402;5.322;2023-04-03T07:59:25;2.50;;;1.60;;
11817;SDS011;5966;52.402;5.322;2023-04-03T08:01:55;3.73;;;1.60;;
11817;SDS011;5966;52.402;5.322;2023-04-03T08:04:25;2.23;;;1.30;;
11817;SDS011;5966;52.402;5.322;2023-04-03T08:06:54;9.07;;;1.83;;
11817;SDS011;5966;52.402;5.322;2023-04-03T08:09:40;5.17;;;2.03;;
11817;SDS011;5966;52.402;5.322;2023-04-03T08:12:11;3.00;;;1.20;;
11817;SDS011;5966;52.402;5.322;2023-04-03T08:14:41;3.03;;;1.43;;
11817;SDS011;5966;52.402;5.322;2023-04-03T08:17:11;3.70;;;1.97;;
11817;SDS011;5966;52.402;5.322;2023-04-03T08:19:39;4.07;;;1.80;;
11817;SDS011;5966;52.402;5.322;2023-04-03T08:22:09;2.70;;;1.60;;
11817;SDS011;5966;52.402;5.322;2023-04-03T08:24:41;3.17;;;1.60;;
11817;SDS011;5966;52.402;5.322;2023-04-03T08:27:24;4.23;;;1.50;;
11817;SDS011;5966;52.402;5.322;2023-04-03T08:29:57;4.17;;;1.53;;
11817;SDS011;5966;52.402;5.322;2023-04-03T08:32:27;2.70;;;1.20;;
11817;SDS011;5966;52.402;5.322;2023-04-03T08:34:55;2.57;;;1.43;;
11817;SDS011;5966;52.402;5.322;2023-04-03T08:37:23;3.20;;;1.43;;
11817;SDS011;5966;52.402;5.322;2023-04-03T08:39:53;1.87;;;1.00;;
11817;SDS011;5966;52.402;5.322;2023-04-03T08:42:26;2.73;;;1.33;;
11817;SDS011;5966;52.402;5.322;2023-04-03T08:45:09;2.27;;;1.30;;
11817;SDS011;5966;52.402;5.322;2023-04-03T08:47:46;2.23;;;1.23;;
11817;SDS011;5966;52.402;5.322;2023-04-03T08:50:21;2.87;;;1.30;;
11817;SDS011;5966;52.402;5.322;2023-04-03T08:52:59;5.00;;;1.27;;
11817;SDS011;5966;52.402;5.322;2023-04-03T08:55:40;2.63;;;1.43;;
11817;SDS011;5966;52.402;5.322;2023-04-03T08:58:12;17.10;;;3.97;;
11817;SDS011;5966;52.402;5.322;2023-04-03T09:00:44;1.80;;;1.10;;
11817;SDS011;5966;52.402;5.322;2023-04-03T09:03:19;2.20;;;1.07;;
11817;SDS011;5966;52.402;5.322;2023-04-03T09:05:50;1.20;;;0.93;;
11817;SDS011;5966;52.402;5.322;2023-04-03T09:08:23;1.37;;;0.87;;
11817;SDS011;5966;52.402;5.322;2023-04-03T09:10:59;2.33;;;1.20;;
11817;SDS011;5966;52.402;5.322;2023-04-03T09:13:39;2.70;;;1.40;;
11817;SDS011;5966;52.402;5.322;2023-04-03T09:16:20;2.80;;;1.50;;
11817;SDS011;5966;52.402;5.322;2023-04-03T09:18:56;1.23;;;1.00;;
11817;SDS011;5966;52.402;5.322;2023-04-03T09:21:32;2.10;;;0.90;;
11817;SDS011;5966;52.402;5.322;2023-04-03T09:24:09;1.70;;;0.90;;
11817;SDS011;5966;52.402;5.322;2023-04-03T09:26:43;1.37;;;0.90;;
11817;SDS011;5966;52.402;5.322;2023-04-03T09:29:14;1.70;;;0.90;;
11817;SDS011;5966;52.402;5.322;2023-04-03T09:31:48;2.50;;;1.00;;
11817;SDS011;5966;52.402;5.322;2023-04-03T09:34:18;1.27;;;0.80;;
11817;SDS011;5966;52.402;5.322;2023-04-03T09:36:51;1.33;;;0.87;;
11817;SDS011;5966;52.402;5.322;2023-04-03T09:39:23;1.87;;;0.70;;
11817;SDS011;5966;52.402;5.322;2023-04-03T09:41:58;1.67;;;0.83;;
11817;SDS011;5966;52.402;5.322;2023-04-03T09:44:28;2.17;;;1.30;;
11817;SDS011;5966;52.402;5.322;2023-04-03T09:46:58;1.70;;;1.00;;
11817;SDS011;5966;52.402;5.322;2023-04-03T09:49:27;0.83;;;0.57;;
11817;SDS011;5966;52.402;5.322;2023-04-03T09:51:57;1.73;;;0.73;;
11817;SDS011;5966;52.402;5.322;2023-04-03T09:54:45;2.17;;;0.80;;
11817;SDS011;5966;52.402;5.322;2023-04-03T09:57:14;1.33;;;0.90;;
11817;SDS011;5966;52.402;5.322;2023-04-03T09:59:44;2.00;;;0.90;;
11817;SDS011;5966;52.402;5.322;2023-04-03T10:08:07;0.53;;;0.50;;
11817;SDS011;5966;52.402;5.322;2023-04-03T10:10:37;2.13;;;0.60;;
11817;SDS011;5966;52.402;5.322;2023-04-03T10:13:14;0.50;;;0.50;;
11817;SDS011;5966;52.402;5.322;2023-04-03T10:15:48;2.00;;;1.13;;
11817;SDS011;5966;52.402;5.322;2023-04-03T10:18:40;0.50;;;0.50;;
11817;SDS011;5966;52.402;5.322;2023-04-03T10:21:13;0.87;;;0.60;;
11817;SDS011;5966;52.402;5.322;2023-04-03T10:23:54;1.70;;;0.70;;
11817;SDS011;5966;52.402;5.322;2023-04-03T10:26:37;0.70;;;0.50;;
11817;SDS011;5966;52.402;5.322;2023-04-03T10:29:33;1.00;;;0.70;;
11817;SDS011;5966;52.402;5.322;2023-04-03T10:32:16;1.07;;;0.60;;
11817;SDS011;5966;52.402;5.322;2023-04-03T10:34:56;0.80;;;0.47;;
11817;SDS011;5966;52.402;5.322;2023-04-03T10:37:34;0.63;;;0.60;;
11817;SDS011;5966;52.402;5.322;2023-04-03T10:40:12;2.20;;;0.80;;
11817;SDS011;5966;52.402;5.322;2023-04-03T10:42:55;0.70;;;0.60;;
11817;SDS011;5966;52.402;5.322;2023-04-03T10:45:46;4.47;;;0.93;;
11817;SDS011;5966;52.402;5.322;2023-04-03T10:48:28;1.37;;;0.70;;
11817;SDS011;5966;52.402;5.322;2023-04-03T10:51:09;2.03;;;0.40;;
11817;SDS011;5966;52.402;5.322;2023-04-03T10:54:00;3.90;;;0.70;;
11817;SDS011;5966;52.402;5.322;2023-04-03T10:56:35;4.00;;;0.97;;
11817;SDS011;5966;52.402;5.322;2023-04-03T10:59:13;1.73;;;0.60;;
11817;SDS011;5966;52.402;5.322;2023-04-03T11:01:51;0.73;;;0.60;;
11817;SDS011;5966;52.402;5.322;2023-04-03T11:04:39;1.60;;;0.77;;
11817;SDS011;5966;52.402;5.322;2023-04-03T11:07:10;0.90;;;0.67;;
11817;SDS011;5966;52.402;5.322;2023-04-03T11:09:45;1.77;;;0.70;;
11817;SDS011;5966;52.402;5.322;2023-04-03T11:12:23;1.53;;;0.70;;
11817;SDS011;5966;52.402;5.322;2023-04-03T11:14:55;3.47;;;0.60;;
11817;SDS011;5966;52.402;5.322;2023-04-03T11:17:45;1.20;;;0.63;;
11817;SDS011;5966;52.402;5.322;2023-04-03T11:20:23;0.90;;;0.60;;
11817;SDS011;5966;52.402;5.322;2023-04-03T11:23:04;0.90;;;0.40;;
11817;SDS011;5966;52.402;5.322;2023-04-03T11:26:09;0.50;;;0.43;;
11817;SDS011;5966;52.402;5.322;2023-04-03T11:28:42;1.77;;;0.70;;
11817;SDS011;5966;52.402;5.322;2023-04-03T11:31:19;0.40;;;0.40;;
11817;SDS011;5966;52.402;5.322;2023-04-03T11:34:17;3.37;;;0.90;;
11817;SDS011;5966;52.402;5.322;2023-04-03T11:36:56;1.57;;;0.53;;
11817;SDS011;5966;52.402;5.322;2023-04-03T11:39:34;0.50;;;0.50;;
11817;SDS011;5966;52.402;5.322;2023-04-03T11:42:15;1.00;;;0.70;;
11817;SDS011;5966;52.402;5.322;2023-04-03T11:44:44;0.77;;;0.53;;
11817;SDS011;5966;52.402;5.322;2023-04-03T11:47:13;2.80;;;0.83;;
11817;SDS011;5966;52.402;5.322;2023-04-03T11:56:03;0.60;;;0.60;;
11817;SDS011;5966;52.402;5.322;2023-04-03T12:02:13;0.73;;;0.60;;
11817;SDS011;5966;52.402;5.322;2023-04-03T12:05:24;1.87;;;0.80;;
11817;SDS011;5966;52.402;5.322;2023-04-03T12:16:33;1.57;;;0.70;;
11817;SDS011;5966;52.402;5.322;2023-04-03T12:22:08;2.33;;;0.63;;
11817;SDS011;5966;52.402;5.322;2023-04-03T12:24:39;2.20;;;1.07;;
11817;SDS011;5966;52.402;5.322;2023-04-03T12:30:14;2.13;;;0.83;;
11817;SDS011;5966;52.402;5.322;2023-04-03T12:32:51;2.50;;;0.90;;
11817;SDS011;5966;52.402;5.322;2023-04-03T12:35:44;1.90;;;0.50;;
11817;SDS011;5966;52.402;5.322;2023-04-03T12:38:33;2.07;;;0.87;;
11817;SDS011;5966;52.402;5.322;2023-04-03T12:41:24;2.80;;;1.00;;
11817;SDS011;5966;52.402;5.322;2023-04-03T12:44:13;2.83;;;0.70;;
11817;SDS011;5966;52.402;5.322;2023-04-03T12:47:01;0.83;;;0.80;;
11817;SDS011;5966;52.402;5.322;2023-04-03T12:49:37;4.93;;;0.90;;
11817;SDS011;5966;52.402;5.322;2023-04-03T12:52:16;1.10;;;0.90;;
11817;SDS011;5966;52.402;5.322;2023-04-03T12:54:50;3.13;;;0.80;;
11817;SDS011;5966;52.402;5.322;2023-04-03T12:57:23;2.07;;;1.03;;
11817;SDS011;5966;52.402;5.322;2023-04-03T12:59:53;1.97;;;0.93;;
11817;SDS011;5966;52.402;5.322;2023-04-03T13:02:23;1.07;;;0.70;;
11817;SDS011;5966;52.402;5.322;2023-04-03T13:04:53;2.47;;;1.00;;
11817;SDS011;5966;52.402;5.322;2023-04-03T13:07:24;2.33;;;1.20;;
11817;SDS011;5966;52.402;5.322;2023-04-03T13:09:59;1.20;;;0.90;;
11817;SDS011;5966;52.402;5.322;2023-04-03T13:12:31;1.17;;;1.00;;
11817;SDS011;5966;52.402;5.322;2023-04-03T13:15:00;1.23;;;0.87;;
11817;SDS011;5966;52.402;5.322;2023-04-03T13:17:38;1.93;;;0.90;;
11817;SDS011;5966;52.402;5.322;2023-04-03T13:20:12;2.97;;;1.03;;
11817;SDS011;5966;52.402;5.322;2023-04-03T13:22:45;1.83;;;0.87;;
11817;SDS011;5966;52.402;5.322;2023-04-03T13:25:18;2.47;;;0.87;;
11817;SDS011;5966;52.402;5.322;2023-04-03T13:27:51;2.17;;;0.97;;
11817;SDS011;5966;52.402;5.322;2023-04-03T13:30:38;1.13;;;0.70;;
11817;SDS011;5966;52.402;5.322;2023-04-03T13:33:19;1.33;;;0.90;;
11817;SDS011;5966;52.402;5.322;2023-04-03T13:35:54;4.13;;;0.90;;
11817;SDS011;5966;52.402;5.322;2023-04-03T13:38:28;1.80;;;0.90;;
11817;SDS011;5966;52.402;5.322;2023-04-03T13:41:02;0.90;;;0.90;;
11817;SDS011;5966;52.402;5.322;2023-04-03T13:43:41;1.20;;;0.90;;
11817;SDS011;5966;52.402;5.322;2023-04-03T13:46:22;2.13;;;0.90;;
11817;SDS011;5966;52.402;5.322;2023-04-03T13:48:52;3.57;;;0.80;;
11817;SDS011;5966;52.402;5.322;2023-04-03T13:51:22;2.00;;;0.80;;
11817;SDS011;5966;52.402;5.322;2023-04-03T13:53:52;1.57;;;0.90;;
11817;SDS011;5966;52.402;5.322;2023-04-03T13:56:26;1.97;;;1.20;;
11817;SDS011;5966;52.402;5.322;2023-04-03T13:59:20;1.57;;;0.97;;
11817;SDS011;5966;52.402;5.322;2023-04-03T14:01:53;1.70;;;1.10;;
11817;SDS011;5966;52.402;5.322;2023-04-03T14:04:45;2.80;;;1.03;;
11817;SDS011;5966;52.402;5.322;2023-04-03T14:07:28;1.60;;;1.07;;
11817;SDS011;5966;52.402;5.322;2023-04-03T14:09:57;4.53;;;1.10;;
11817;SDS011;5966;52.402;5.322;2023-04-03T14:12:28;5.93;;;1.37;;
11817;SDS011;5966;52.402;5.322;2023-04-03T14:15:20;5.77;;;1.57;;
11817;SDS011;5966;52.402;5.322;2023-04-03T14:17:50;4.77;;;1.20;;
11817;SDS011;5966;52.402;5.322;2023-04-03T14:20:22;1.93;;;1.23;;
11817;SDS011;5966;52.402;5.322;2023-04-03T14:22:53;2.67;;;1.10;;
11817;SDS011;5966;52.402;5.322;2023-04-03T14:25:24;1.23;;;0.77;;
11817;SDS011;5966;52.402;5.322;2023-04-03T14:27:54;2.17;;;0.90;;
11817;SDS011;5966;52.402;5.322;2023-04-03T14:30:28;3.87;;;0.87;;
11817;SDS011;5966;52.402;5.322;2023-04-03T14:33:02;3.57;;;1.03;;
11817;SDS011;5966;52.402;5.322;2023-04-03T14:35:30;2.17;;;0.97;;
11817;SDS011;5966;52.402;5.322;2023-04-03T14:38:05;1.20;;;0.90;;
11817;SDS011;5966;52.402;5.322;2023-04-03T14:40:41;1.97;;;1.10;;
11817;SDS011;5966;52.402;5.322;2023-04-03T14:43:11;1.10;;;1.00;;
11817;SDS011;5966;52.402;5.322;2023-04-03T14:45:45;2.70;;;1.03;;
11817;SDS011;5966;52.402;5.322;2023-04-03T14:48:19;2.47;;;1.07;;
11817;SDS011;5966;52.402;5.322;2023-04-03T14:50:48;2.83;;;1.07;;
11817;SDS011;5966;52.402;5.322;2023-04-03T14:53:31;4.03;;;1.43;;
11817;SDS011;5966;52.402;5.322;2023-04-03T14:56:05;2.17;;;1.20;;
11817;SDS011;5966;52.402;5.322;2023-04-03T14:58:39;2.37;;;0.90;;
11817;SDS011;5966;52.402;5.322;2023-04-03T15:01:10;3.67;;;1.00;;
11817;SDS011;5966;52.402;5.322;2023-04-03T15:03:40;1.60;;;0.90;;
11817;SDS011;5966;52.402;5.322;2023-04-03T15:06:09;2.20;;;0.90;;
11817;SDS011;5966;52.402;5.322;2023-04-03T15:08:39;2.70;;;1.17;;
11817;SDS011;5966;52.402;5.322;2023-04-03T15:11:13;1.30;;;0.70;;
11817;SDS011;5966;52.402;5.322;2023-04-03T15:13:46;1.87;;;1.10;;
11817;SDS011;5966;52.402;5.322;2023-04-03T15:16:19;1.27;;;0.83;;
11817;SDS011;5966;52.402;5.322;2023-04-03T15:18:48;1.57;;;0.90;;
11817;SDS011;5966;52.402;5.322;2023-04-03T15:21:17;1.83;;;0.97;;
11817;SDS011;5966;52.402;5.322;2023-04-03T15:23:47;1.80;;;1.10;;
11817;SDS011;5966;52.402;5.322;2023-04-03T15:26:15;1.77;;;1.00;;
11817;SDS011;5966;52.402;5.322;2023-04-03T15:28:47;2.13;;;1.10;;
11817;SDS011;5966;52.402;5.322;2023-04-03T15:31:17;2.17;;;0.90;;
11817;SDS011;5966;52.402;5.322;2023-04-03T15:33:49;0.73;;;0.73;;
11817;SDS011;5966;52.402;5.322;2023-04-03T15:36:19;1.73;;;1.00;;
11817;SDS011;5966;52.402;5.322;2023-04-03T15:38:59;2.43;;;0.90;;
11817;SDS011;5966;52.402;5.322;2023-04-03T15:41:27;2.47;;;1.03;;
11817;SDS011;5966;52.402;5.322;2023-04-03T15:43:58;1.83;;;1.10;;
11817;SDS011;5966;52.402;5.322;2023-04-03T15:46:29;2.23;;;1.37;;
11817;SDS011;5966;52.402;5.322;2023-04-03T15:49:00;1.47;;;1.07;;
11817;SDS011;5966;52.402;5.322;2023-04-03T15:51:29;2.37;;;1.20;;
11817;SDS011;5966;52.402;5.322;2023-04-03T15:53:57;2.70;;;1.30;;
11817;SDS011;5966;52.402;5.322;2023-04-03T15:56:31;3.00;;;0.97;;
11817;SDS011;5966;52.402;5.322;2023-04-03T15:58:59;2.33;;;1.13;;
11817;SDS011;5966;52.402;5.322;2023-04-03T16:01:32;1.23;;;1.10;;
11817;SDS011;5966;52.402;5.322;2023-04-03T16:04:00;2.07;;;1.00;;
11817;SDS011;5966;52.402;5.322;2023-04-03T16:06:30;4.30;;;1.10;;
11817;SDS011;5966;52.402;5.322;2023-04-03T16:09:00;2.57;;;1.23;;
11817;SDS011;5966;52.402;5.322;2023-04-03T16:11:42;1.50;;;1.00;;
11817;SDS011;5966;52.402;5.322;2023-04-03T16:14:11;2.10;;;1.23;;
11817;SDS011;5966;52.402;5.322;2023-04-03T16:16:41;1.70;;;0.80;;
11817;SDS011;5966;52.402;5.322;2023-04-03T16:19:09;2.53;;;1.37;;
11817;SDS011;5966;52.402;5.322;2023-04-03T16:21:37;3.40;;;1.27;;